createdAt,value
2023-01-19T00:02:16.705Z,100.00
2023-01-19T00:05:18.892Z,100.00
2023-01-19T00:08:21.124Z,100.00
2023-01-19T00:11:24.047Z,100.00
2023-01-19T00:14:26.380Z,100.00
2023-01-19T00:17:28.492Z,100.00
2023-01-19T00:20:35.632Z,100.00
2023-01-19T00:23:37.701Z,100.00
2023-01-19T00:26:43.026Z,100.00
2023-01-19T00:29:45.272Z,100.00
2023-01-19T00:32:47.347Z,100.00
2023-01-19T00:35:53.289Z,100.00
2023-01-19T00:38:55.405Z,100.00
2023-01-19T00:42:16.239Z,100.00
2023-01-19T00:45:20.814Z,100.00
2023-01-19T00:48:23.035Z,100.00
2023-01-19T00:51:25.583Z,100.00
2023-01-19T00:54:27.806Z,100.00
2023-01-19T00:57:29.949Z,100.00
2023-01-19T01:00:32.373Z,100.00
2023-01-19T01:03:34.515Z,100.00
2023-01-19T01:06:36.651Z,100.00
2023-01-19T01:09:39.007Z,100.00
2023-01-19T01:12:41.478Z,100.00
2023-01-19T01:15:58.735Z,100.00
2023-01-19T01:19:00.905Z,100.00
2023-01-19T01:22:02.955Z,100.00
2023-01-19T01:25:05.354Z,100.00
2023-01-19T01:28:08.977Z,100.00
2023-01-19T01:31:11.085Z,100.00
2023-01-19T01:34:13.296Z,100.00
2023-01-19T01:37:15.482Z,100.00
2023-01-19T01:40:18.644Z,100.00
2023-01-19T01:43:20.942Z,100.00
2023-01-19T01:46:23.096Z,100.00
2023-01-19T01:49:25.387Z,100.00
2023-01-19T01:52:29.593Z,100.00
2023-01-19T01:55:35.072Z,100.00
2023-01-19T01:58:39.110Z,100.00
2023-01-19T02:02:00.296Z,100.00
2023-01-19T02:05:09.646Z,100.00
2023-01-19T02:08:49.586Z,100.00
2023-01-19T02:12:12.545Z,100.00
2023-01-19T02:15:17.864Z,100.00
2023-01-19T02:18:23.200Z,100.00
2023-01-19T02:21:43.156Z,100.00
2023-01-19T02:24:45.442Z,100.00
2023-01-19T02:27:48.835Z,100.00
2023-01-19T02:30:51.037Z,100.00
2023-01-19T02:33:54.379Z,100.00
2023-01-19T02:37:13.817Z,100.00
2023-01-19T02:40:22.129Z,100.00
2023-01-19T02:43:25.262Z,100.00
2023-01-19T02:46:27.504Z,100.00
2023-01-19T02:49:30.367Z,100.00
2023-01-19T02:52:32.519Z,100.00
2023-01-19T02:55:34.685Z,100.00
2023-01-19T02:58:57.038Z,100.00
2023-01-19T03:02:47.985Z,100.00
2023-01-19T03:05:59.142Z,100.00
2023-01-19T03:09:20.069Z,100.00
2023-01-19T03:12:46.259Z,100.00
2023-01-19T03:16:14.718Z,100.00
2023-01-19T03:19:44.081Z,99.89
2023-01-19T03:22:50.901Z,99.96
2023-01-19T03:25:54.691Z,100.00
2023-01-19T03:29:00.705Z,100.00
2023-01-19T03:32:09.294Z,100.00
2023-01-19T03:35:14.450Z,100.00
2023-01-19T03:38:25.091Z,100.00
2023-01-19T03:41:28.713Z,99.75
2023-01-19T03:44:35.027Z,99.46
2023-01-19T03:47:37.514Z,99.64
2023-01-19T03:50:39.731Z,99.36
2023-01-19T03:53:42.135Z,99.48
2023-01-19T03:56:44.949Z,99.72
2023-01-19T03:59:47.005Z,99.73
2023-01-19T04:02:49.141Z,99.35
2023-01-19T04:05:51.729Z,99.44
2023-01-19T04:08:54.766Z,98.91
2023-01-19T04:11:57.458Z,99.06
2023-01-19T04:14:59.571Z,99.03
2023-01-19T04:18:01.944Z,98.87
2023-01-19T04:21:07.109Z,98.44
2023-01-19T04:24:10.518Z,98.27
2023-01-19T04:27:12.603Z,98.00
2023-01-19T04:30:15.203Z,98.30
2023-01-19T04:33:17.350Z,97.81
2023-01-19T04:36:19.511Z,97.82
2023-01-19T04:39:23.265Z,97.28
2023-01-19T04:42:25.358Z,97.19
2023-01-19T04:45:27.421Z,97.29
2023-01-19T04:48:29.856Z,97.20
2023-01-19T04:51:32.014Z,96.75
2023-01-19T04:54:34.153Z,96.78
2023-01-19T04:57:36.355Z,96.60
2023-01-19T05:00:41.178Z,96.56
2023-01-19T05:03:43.327Z,96.48
2023-01-19T05:06:45.685Z,95.76
2023-01-19T05:09:48.334Z,95.96
2023-01-19T05:12:51.392Z,95.94
2023-01-19T05:15:53.629Z,95.51
2023-01-19T05:18:55.822Z,95.94
2023-01-19T05:21:58.148Z,95.84
2023-01-19T05:25:01.887Z,95.66
2023-01-19T05:28:04.326Z,95.38
2023-01-19T05:31:06.692Z,95.51
2023-01-19T05:34:11.707Z,95.51
2023-01-19T05:37:14.474Z,95.76
2023-01-19T05:40:16.815Z,95.71
2023-01-19T05:43:18.926Z,95.77
2023-01-19T05:46:21.073Z,95.70
2023-01-19T05:49:23.312Z,95.40
2023-01-19T05:52:25.410Z,95.70
2023-01-19T05:55:28.039Z,95.50
2023-01-19T05:58:30.160Z,95.07
2023-01-19T06:01:38.846Z,95.18
2023-01-19T06:04:42.043Z,95.29
2023-01-19T06:07:44.195Z,95.58
2023-01-19T06:10:46.371Z,95.58
2023-01-19T06:13:48.600Z,94.80
2023-01-19T06:16:50.862Z,95.00
2023-01-19T06:19:53.087Z,94.97
2023-01-19T06:22:58.047Z,94.87
2023-01-19T06:26:00.279Z,94.05
2023-01-19T06:29:02.554Z,92.95
2023-01-19T06:32:04.978Z,93.39
2023-01-19T06:35:08.062Z,93.42
2023-01-19T06:38:10.249Z,93.40
2023-01-19T06:41:12.395Z,92.92
2023-01-19T06:44:14.562Z,92.92
2023-01-19T06:47:16.768Z,92.78
2023-01-19T06:50:18.990Z,93.00
2023-01-19T06:53:22.410Z,93.30
2023-01-19T06:56:24.594Z,93.05
2023-01-19T06:59:27.085Z,93.24
2023-01-19T07:02:29.552Z,93.20
2023-01-19T07:05:31.899Z,93.34
2023-01-19T07:08:35.342Z,92.69
2023-01-19T07:11:37.748Z,93.10
2023-01-19T07:14:39.982Z,93.54
2023-01-19T07:17:42.458Z,93.17
2023-01-19T07:20:46.954Z,93.76
2023-01-19T07:23:50.442Z,93.20
2023-01-19T07:26:52.555Z,93.68
2023-01-19T07:29:54.954Z,93.53
2023-01-19T07:32:58.981Z,93.52
2023-01-19T07:36:01.280Z,93.54
2023-01-19T07:39:03.395Z,93.85
2023-01-19T07:42:06.872Z,93.41
2023-01-19T07:45:09.446Z,93.72
2023-01-19T07:48:11.599Z,93.09
2023-01-19T07:51:18.113Z,93.01
2023-01-19T07:54:20.948Z,93.51
2023-01-19T07:57:24.233Z,92.85
2023-01-19T08:00:26.621Z,92.71
2023-01-19T08:03:28.668Z,92.88
2023-01-19T08:06:35.400Z,92.93
2023-01-19T08:09:37.440Z,92.68
2023-01-19T08:12:39.706Z,93.38
2023-01-19T08:15:41.830Z,93.47
2023-01-19T08:18:44.084Z,93.63
2023-01-19T08:21:46.577Z,93.76
2023-01-19T08:24:50.381Z,93.90
2023-01-19T08:27:54.979Z,93.91
2023-01-19T08:30:57.858Z,93.99
2023-01-19T08:34:00.171Z,94.27
2023-01-19T08:37:02.267Z,94.53
2023-01-19T08:40:04.773Z,94.50
2023-01-19T08:43:09.900Z,94.62
2023-01-19T08:46:12.664Z,94.19
2023-01-19T08:49:15.908Z,94.43
2023-01-19T08:52:18.020Z,94.48
2023-01-19T08:55:20.501Z,94.58
2023-01-19T08:58:22.650Z,94.58
2023-01-19T09:01:25.642Z,94.91
2023-01-19T09:04:28.063Z,94.79
2023-01-19T09:07:32.567Z,94.49
2023-01-19T09:10:39.656Z,94.51
2023-01-19T09:13:42.326Z,94.46
2023-01-19T09:16:44.587Z,94.54
2023-01-19T09:19:46.897Z,94.48
2023-01-19T09:22:49.519Z,94.16
2023-01-19T09:25:57.333Z,93.79
2023-01-19T09:28:59.991Z,93.50
2023-01-19T09:32:02.808Z,93.21
2023-01-19T09:35:05.468Z,92.67
2023-01-19T09:38:09.107Z,92.96
2023-01-19T09:41:22.736Z,92.50
2023-01-19T09:44:34.655Z,92.33
2023-01-19T09:47:38.503Z,92.36
2023-01-19T09:50:46.874Z,92.65
2023-01-19T09:54:12.159Z,91.69
2023-01-19T09:57:15.019Z,91.81
2023-01-19T10:00:18.752Z,91.61
2023-01-19T10:03:21.285Z,91.52
2023-01-19T10:06:23.801Z,91.38
2023-01-19T10:09:40.722Z,91.14
2023-01-19T10:13:04.871Z,90.41
2023-01-19T10:16:26.302Z,90.50
2023-01-19T10:19:41.367Z,90.89
2023-01-19T10:22:49.916Z,90.94
2023-01-19T10:25:52.614Z,90.82
2023-01-19T10:28:59.649Z,91.34
2023-01-19T10:32:33.619Z,90.86
2023-01-19T10:35:36.469Z,91.06
2023-01-19T10:38:38.639Z,91.26
2023-01-19T10:41:49.169Z,90.76
2023-01-19T10:44:51.315Z,90.82
2023-01-19T10:47:55.659Z,90.70
2023-01-19T10:51:05.986Z,90.35
2023-01-19T10:54:13.114Z,90.57
2023-01-19T10:57:26.542Z,90.57
2023-01-19T11:00:31.705Z,91.26
2023-01-19T11:03:33.797Z,91.39
2023-01-19T11:06:35.967Z,91.44
2023-01-19T11:09:38.082Z,91.87
2023-01-19T11:12:42.934Z,92.21
2023-01-19T11:15:47.503Z,92.98
2023-01-19T11:18:53.874Z,93.65
2023-01-19T11:22:21.872Z,94.40
2023-01-19T11:25:31.177Z,95.29
2023-01-19T11:28:37.252Z,95.55
2023-01-19T11:31:39.458Z,96.32
2023-01-19T11:34:41.685Z,97.01
2023-01-19T11:37:43.910Z,97.59
2023-01-19T11:40:57.710Z,97.96
2023-01-19T11:44:24.767Z,97.87
2023-01-19T11:47:42.937Z,98.18
2023-01-19T11:50:46.134Z,98.64
2023-01-19T11:53:52.588Z,98.55
2023-01-19T11:56:55.877Z,98.87
2023-01-19T12:00:03.630Z,98.45
2023-01-19T12:03:08.964Z,98.37
2023-01-19T12:06:18.437Z,99.08
2023-01-19T12:09:27.096Z,98.45
2023-01-19T12:12:35.539Z,98.57
2023-01-19T12:15:44.505Z,98.89
2023-01-19T12:18:59.556Z,98.83
2023-01-19T12:22:03.042Z,98.61
2023-01-19T12:25:25.356Z,99.03
2023-01-19T12:28:39.108Z,99.19
2023-01-19T12:31:43.365Z,99.30
2023-01-19T12:34:51.974Z,99.18
2023-01-19T12:37:54.140Z,99.15
2023-01-19T12:41:16.482Z,98.79
2023-01-19T12:44:25.119Z,99.02
2023-01-19T12:47:27.388Z,99.13
2023-01-19T12:50:38.068Z,99.04
2023-01-19T12:53:40.280Z,99.09
2023-01-19T12:56:42.542Z,99.45
2023-01-19T12:59:45.005Z,99.61
2023-01-19T13:02:55.996Z,99.67
2023-01-19T13:05:58.438Z,99.81
2023-01-19T13:09:01.456Z,100.00
2023-01-19T13:12:15.778Z,99.67
2023-01-19T13:15:35.935Z,99.71
2023-01-19T13:18:41.800Z,99.62
2023-01-19T13:21:47.018Z,99.57
2023-01-19T13:25:06.298Z,99.64
2023-01-19T13:28:10.330Z,99.61
2023-01-19T13:31:14.237Z,99.85
2023-01-19T13:34:23.103Z,99.53
2023-01-19T13:37:45.963Z,99.47
2023-01-19T13:40:48.859Z,99.03
2023-01-19T13:44:32.201Z,98.98
2023-01-19T13:47:46.924Z,99.20
2023-01-19T13:51:02.995Z,99.03
2023-01-19T13:54:06.372Z,98.41
2023-01-19T13:57:27.155Z,98.37
2023-01-19T14:00:31.063Z,98.37
2023-01-19T14:03:33.325Z,97.14
2023-01-19T14:06:44.682Z,97.43
2023-01-19T14:09:46.772Z,97.55
2023-01-19T14:13:02.914Z,97.36
2023-01-19T14:16:07.977Z,96.71
2023-01-19T14:19:10.199Z,96.63
2023-01-19T14:22:12.322Z,96.91
2023-01-19T14:25:29.763Z,97.49
2023-01-19T14:28:40.352Z,97.75
2023-01-19T14:31:48.837Z,97.79
2023-01-19T14:35:05.912Z,97.73
2023-01-19T14:38:14.284Z,97.93
2023-01-19T14:41:37.552Z,97.58
2023-01-19T14:44:40.455Z,98.01
2023-01-19T14:47:45.564Z,97.80
2023-01-19T14:51:02.338Z,97.87
2023-01-19T14:54:05.493Z,97.39
2023-01-19T14:57:13.236Z,97.37
2023-01-19T15:00:20.348Z,97.49
2023-01-19T15:03:26.829Z,97.76
2023-01-19T15:06:38.416Z,98.02
2023-01-19T15:09:41.074Z,98.14
2023-01-19T15:12:43.477Z,98.39
2023-01-19T15:15:45.733Z,98.76
2023-01-19T15:18:47.915Z,99.49
2023-01-19T15:21:51.445Z,99.88
2023-01-19T15:24:57.725Z,100.00
2023-01-19T15:28:00.239Z,100.00
2023-01-19T15:31:02.593Z,100.00
2023-01-19T15:34:04.653Z,100.00
2023-01-19T15:37:06.995Z,100.00
2023-01-19T15:40:11.403Z,100.00
2023-01-19T15:43:13.597Z,100.00
2023-01-19T15:46:18.707Z,100.00
2023-01-19T15:49:21.752Z,100.00
2023-01-19T15:52:23.900Z,100.00
2023-01-19T15:55:26.097Z,100.00
2023-01-19T15:58:28.271Z,100.00
2023-01-19T16:01:34.810Z,100.00
2023-01-19T16:04:36.907Z,100.00
2023-01-19T16:07:39.081Z,100.00
2023-01-19T16:10:42.698Z,100.00
2023-01-19T16:13:46.366Z,100.00
2023-01-19T16:16:49.367Z,99.99
2023-01-19T16:19:51.656Z,100.00
2023-01-19T16:22:56.516Z,100.00
2023-01-19T16:26:09.741Z,100.00
2023-01-19T16:29:11.975Z,100.00
2023-01-19T16:32:15.212Z,100.00
2023-01-19T16:35:17.646Z,100.00
2023-01-19T16:38:21.989Z,100.00
2023-01-19T16:41:24.411Z,100.00
2023-01-19T16:44:26.798Z,100.00
2023-01-19T16:47:28.922Z,100.00
2023-01-19T16:50:31.070Z,100.00
2023-01-19T16:53:37.202Z,100.00
2023-01-19T16:56:41.649Z,100.00
2023-01-19T16:59:45.287Z,100.00
2023-01-19T17:02:48.783Z,100.00
2023-01-19T17:05:53.172Z,100.00
2023-01-19T17:08:55.779Z,100.00
2023-01-19T17:11:58.588Z,100.00
2023-01-19T17:15:02.512Z,100.00
2023-01-19T17:18:07.200Z,100.00
2023-01-19T17:21:10.995Z,100.00
2023-01-19T17:24:14.243Z,100.00
2023-01-19T17:27:17.657Z,100.00
2023-01-19T17:30:20.873Z,100.00
2023-01-19T17:33:25.509Z,100.00
2023-01-19T17:36:32.688Z,100.00
2023-01-19T17:39:35.805Z,100.00
2023-01-19T17:42:43.428Z,100.00
2023-01-19T17:45:46.537Z,100.00
2023-01-19T17:49:02.380Z,100.00
2023-01-19T17:52:05.974Z,100.00
2023-01-19T17:55:09.666Z,100.00
2023-01-19T17:58:14.375Z,100.00
2023-01-19T18:01:24.029Z,100.00
2023-01-19T18:04:29.164Z,100.00
2023-01-19T18:07:33.519Z,100.00
2023-01-19T18:10:38.006Z,100.00
2023-01-19T18:13:43.791Z,100.00
2023-01-19T18:16:47.242Z,100.00
2023-01-19T18:19:52.587Z,100.00
2023-01-19T18:22:56.949Z,100.00
2023-01-19T18:26:11.589Z,100.00
2023-01-19T18:29:17.216Z,100.00
2023-01-19T18:32:21.313Z,100.00
2023-01-19T18:35:24.831Z,100.00
2023-01-19T18:38:29.284Z,100.00
2023-01-19T18:41:36.170Z,100.00
2023-01-19T18:44:39.269Z,100.00
2023-01-19T18:47:42.883Z,100.00
2023-01-19T18:50:46.922Z,100.00
2023-01-19T18:53:52.114Z,100.00
2023-01-19T18:56:56.102Z,100.00
2023-01-19T18:59:59.891Z,100.00
2023-01-19T19:03:06.583Z,100.00
2023-01-19T19:06:11.338Z,100.00
2023-01-19T19:09:15.886Z,100.00
2023-01-19T19:12:20.431Z,100.00
2023-01-19T19:15:23.515Z,100.00
2023-01-19T19:18:26.967Z,100.00
2023-01-19T19:21:30.722Z,100.00
2023-01-19T19:24:34.536Z,100.00
2023-01-19T19:27:38.770Z,100.00
2023-01-19T19:30:42.114Z,100.00
2023-01-19T19:33:46.249Z,100.00
2023-01-19T19:36:50.053Z,100.00
2023-01-19T19:39:53.193Z,100.00
2023-01-19T19:42:58.729Z,100.00
2023-01-19T19:46:11.139Z,100.00
2023-01-19T19:49:14.761Z,100.00
2023-01-19T19:52:18.251Z,100.00
2023-01-19T19:55:21.782Z,100.00
2023-01-19T19:58:26.290Z,100.00
2023-01-19T20:01:33.797Z,100.00
2023-01-19T20:04:39.867Z,100.00
2023-01-19T20:07:47.734Z,100.00
2023-01-19T20:10:51.624Z,100.00
2023-01-19T20:13:55.950Z,100.00
2023-01-19T20:16:59.607Z,100.00
2023-01-19T20:20:04.599Z,100.00
2023-01-19T20:23:09.649Z,100.00
2023-01-19T20:26:15.361Z,100.00
2023-01-19T20:29:20.694Z,100.00
2023-01-19T20:32:25.757Z,100.00
2023-01-19T20:35:31.471Z,100.00
2023-01-19T20:38:35.032Z,100.00
2023-01-19T20:41:43.926Z,100.00
2023-01-19T20:44:47.398Z,100.00
2023-01-19T20:47:51.761Z,100.00
2023-01-19T20:51:01.238Z,100.00
2023-01-19T20:54:04.821Z,100.00
2023-01-19T20:57:08.457Z,100.00
2023-01-19T21:00:14.605Z,100.00
2023-01-19T21:03:19.665Z,100.00
2023-01-19T21:06:25.567Z,100.00
2023-01-19T21:09:28.584Z,100.00
2023-01-19T21:12:31.168Z,100.00
2023-01-19T21:15:33.771Z,100.00
2023-01-19T21:18:36.187Z,100.00
2023-01-19T21:21:38.730Z,100.00
2023-01-19T21:24:42.175Z,100.00
2023-01-19T21:27:46.514Z,100.00
2023-01-19T21:30:50.293Z,100.00
2023-01-19T21:33:54.474Z,100.00
2023-01-19T21:36:56.782Z,100.00
2023-01-19T21:39:59.133Z,100.00
2023-01-19T21:43:01.367Z,100.00
2023-01-19T21:46:11.110Z,100.00
2023-01-19T21:49:18.356Z,100.00
2023-01-19T21:52:20.597Z,100.00
2023-01-19T21:55:22.659Z,100.00
2023-01-19T21:58:24.900Z,100.00
2023-01-19T22:01:27.094Z,100.00
2023-01-19T22:04:29.941Z,100.00
2023-01-19T22:07:33.131Z,100.00
2023-01-19T22:10:37.440Z,100.00
2023-01-19T22:13:40.563Z,100.00
2023-01-19T22:16:42.740Z,100.00
2023-01-19T22:19:46.613Z,100.00
2023-01-19T22:22:48.712Z,100.00
2023-01-19T22:25:50.763Z,100.00
2023-01-19T22:28:57.226Z,100.00
2023-01-19T22:31:59.441Z,100.00
2023-01-19T22:35:03.427Z,100.00
2023-01-19T22:38:05.795Z,100.00
2023-01-19T22:41:16.624Z,100.00
2023-01-19T22:44:21.205Z,100.00
2023-01-19T22:47:23.260Z,100.00
2023-01-19T22:50:25.350Z,100.00
2023-01-19T22:53:28.022Z,100.00
2023-01-19T22:56:32.208Z,100.00
2023-01-19T22:59:34.316Z,100.00
2023-01-19T23:02:36.450Z,100.00
2023-01-19T23:05:38.825Z,100.00
2023-01-19T23:08:41.926Z,100.00
2023-01-19T23:11:48.585Z,100.00
2023-01-19T23:14:50.646Z,100.00
2023-01-19T23:17:53.764Z,100.00
2023-01-19T23:20:56.272Z,100.00
2023-01-19T23:24:04.204Z,100.00
2023-01-19T23:27:06.408Z,100.00
2023-01-19T23:30:09.215Z,100.00
2023-01-19T23:33:11.328Z,100.00
2023-01-19T23:36:14.602Z,100.00
2023-01-19T23:39:20.136Z,100.00
2023-01-19T23:42:22.513Z,100.00
2023-01-19T23:45:24.687Z,100.00
2023-01-19T23:48:26.849Z,100.00
2023-01-19T23:51:31.967Z,100.00
2023-01-19T23:54:34.189Z,100.00
2023-01-19T23:57:36.345Z,100.00
